createdAt,value
2023-05-31T00:00:17.346Z,10.70
2023-05-31T00:02:44.085Z,10.60
2023-05-31T00:05:10.821Z,10.50
2023-05-31T00:07:37.550Z,10.50
2023-05-31T00:10:04.550Z,10.40
2023-05-31T00:12:31.239Z,10.40
2023-05-31T00:14:59.156Z,10.30
2023-05-31T00:17:49.381Z,10.30
2023-05-31T00:20:14.147Z,10.30
2023-05-31T00:22:41.039Z,10.30
2023-05-31T00:25:08.247Z,10.30
2023-05-31T00:27:34.907Z,10.30
2023-05-31T00:30:02.175Z,10.20
2023-05-31T00:32:28.840Z,10.20
2023-05-31T00:34:55.577Z,10.10
2023-05-31T00:37:22.268Z,10.20
2023-05-31T00:39:49.140Z,10.10
2023-05-31T00:42:15.847Z,10.10
2023-05-31T00:44:42.757Z,10.10
2023-05-31T00:47:10.026Z,10.10
2023-05-31T00:49:36.903Z,10.10
2023-05-31T00:52:04.655Z,10.10
2023-05-31T00:54:32.125Z,10.10
2023-05-31T00:56:58.838Z,10.00
2023-05-31T00:59:25.712Z,10.00
2023-05-31T01:01:55.021Z,10.00
2023-05-31T01:04:22.384Z,9.90
2023-05-31T01:06:51.050Z,9.90
2023-05-31T01:09:20.941Z,9.80
2023-05-31T01:12:03.275Z,9.60
2023-05-31T01:14:51.759Z,9.60
2023-05-31T01:17:40.327Z,9.40
2023-05-31T01:20:13.051Z,9.40
2023-05-31T01:22:49.123Z,9.30
2023-05-31T01:25:56.924Z,9.20
2023-05-31T01:28:26.558Z,9.10
2023-05-31T01:30:55.429Z,9.00
2023-05-31T01:33:22.693Z,8.90
2023-05-31T01:35:49.560Z,8.80
2023-05-31T01:38:16.258Z,8.70
2023-05-31T01:40:43.011Z,8.70
2023-05-31T01:43:10.701Z,8.70
2023-05-31T01:45:40.203Z,8.70
2023-05-31T01:48:09.603Z,8.70
2023-05-31T01:50:37.396Z,8.80
2023-05-31T01:53:05.066Z,9.10
2023-05-31T01:55:33.589Z,9.30
2023-05-31T01:58:02.394Z,9.60
2023-05-31T02:00:31.157Z,9.70
2023-05-31T02:02:59.230Z,9.90
2023-05-31T02:05:27.833Z,10.00
2023-05-31T02:07:55.698Z,10.00
2023-05-31T02:10:48.219Z,10.00
2023-05-31T02:13:14.928Z,9.90
2023-05-31T02:15:42.464Z,9.90
2023-05-31T02:18:09.194Z,9.80
2023-05-31T02:20:35.951Z,9.80
2023-05-31T02:23:02.806Z,9.80
2023-05-31T02:25:32.332Z,9.80
2023-05-31T02:28:00.113Z,9.80
2023-05-31T02:30:32.014Z,9.70
2023-05-31T02:33:00.871Z,9.60
2023-05-31T02:35:27.694Z,9.60
2023-05-31T02:37:54.360Z,9.50
2023-05-31T02:40:21.107Z,9.50
2023-05-31T02:42:47.855Z,9.40
2023-05-31T02:45:14.792Z,9.20
2023-05-31T02:47:41.818Z,9.10
2023-05-31T02:50:10.869Z,9.00
2023-05-31T02:52:46.964Z,8.90
2023-05-31T02:55:16.295Z,8.80
2023-05-31T02:58:09.169Z,8.70
2023-05-31T03:00:49.818Z,8.70
2023-05-31T03:03:19.735Z,8.70
2023-05-31T03:05:57.832Z,8.60
2023-05-31T03:08:24.661Z,8.50
2023-05-31T03:10:52.132Z,8.50
2023-05-31T03:13:18.863Z,8.40
2023-05-31T03:15:45.702Z,8.40
2023-05-31T03:18:13.361Z,8.40
2023-05-31T03:20:42.428Z,8.30
2023-05-31T03:23:09.777Z,8.30
2023-05-31T03:25:36.660Z,8.30
2023-05-31T03:28:04.708Z,8.30
2023-05-31T03:30:32.865Z,8.20
2023-05-31T03:33:01.871Z,8.10
2023-05-31T03:35:28.624Z,8.10
2023-05-31T03:37:55.599Z,8.10
2023-05-31T03:40:22.279Z,8.00
2023-05-31T03:42:49.056Z,8.10
2023-05-31T03:45:15.853Z,8.10
2023-05-31T03:47:43.622Z,8.20
2023-05-31T03:50:11.337Z,8.30
2023-05-31T03:52:40.723Z,8.30
2023-05-31T03:55:07.820Z,8.30
2023-05-31T03:57:34.608Z,8.20
2023-05-31T04:00:01.987Z,8.20
2023-05-31T04:02:29.552Z,8.20
2023-05-31T04:04:56.328Z,8.20
2023-05-31T04:07:25.089Z,8.30
2023-05-31T04:09:51.815Z,8.30
2023-05-31T04:12:19.042Z,8.30
2023-05-31T04:14:45.782Z,8.30
2023-05-31T04:17:12.741Z,8.30
2023-05-31T04:19:39.667Z,8.20
2023-05-31T04:22:06.420Z,8.20
2023-05-31T04:24:33.255Z,8.20
2023-05-31T04:26:59.965Z,8.30
2023-05-31T04:29:27.425Z,8.40
2023-05-31T04:31:54.638Z,8.60
2023-05-31T04:34:22.925Z,8.70
2023-05-31T04:36:52.187Z,8.70
2023-05-31T04:39:23.386Z,8.80
2023-05-31T04:41:51.885Z,8.90
2023-05-31T04:44:20.005Z,9.00
2023-05-31T04:46:48.532Z,9.10
2023-05-31T04:49:15.338Z,9.20
2023-05-31T04:51:42.095Z,9.30
2023-05-31T04:54:09.169Z,9.30
2023-05-31T04:56:35.883Z,9.40
2023-05-31T04:59:02.613Z,9.40
2023-05-31T05:01:29.769Z,9.50
2023-05-31T05:04:03.871Z,9.60
2023-05-31T05:06:30.835Z,9.70
2023-05-31T05:08:58.171Z,9.70
2023-05-31T05:11:27.525Z,9.80
2023-05-31T05:13:54.836Z,9.90
2023-05-31T05:16:24.312Z,10.00
2023-05-31T05:18:51.029Z,10.10
2023-05-31T05:21:17.775Z,10.20
2023-05-31T05:23:45.711Z,10.30
2023-05-31T05:26:12.552Z,10.40
2023-05-31T05:28:39.985Z,10.50
2023-05-31T05:31:07.647Z,10.50
2023-05-31T05:33:38.058Z,10.70
2023-05-31T05:36:05.955Z,10.80
2023-05-31T05:38:35.644Z,10.80
2023-05-31T05:41:03.342Z,10.90
2023-05-31T05:43:31.284Z,10.90
2023-05-31T05:46:06.576Z,10.90
2023-05-31T05:48:33.507Z,11.00
2023-05-31T05:51:01.056Z,11.10
2023-05-31T05:53:30.127Z,11.10
2023-05-31T05:55:57.124Z,11.20
2023-05-31T05:58:28.537Z,11.30
2023-05-31T06:01:21.564Z,11.30
2023-05-31T06:03:52.772Z,11.50
2023-05-31T06:06:19.676Z,11.50
2023-05-31T06:08:47.719Z,11.60
2023-05-31T06:11:19.575Z,11.70
2023-05-31T06:13:46.622Z,11.70
2023-05-31T06:16:15.775Z,11.80
2023-05-31T06:18:43.892Z,11.90
2023-05-31T06:21:10.985Z,12.00
2023-05-31T06:23:37.767Z,12.10
2023-05-31T06:26:04.599Z,12.20
2023-05-31T06:28:35.742Z,12.30
2023-05-31T06:31:05.952Z,12.40
2023-05-31T06:33:32.774Z,12.50
2023-05-31T06:36:00.052Z,12.60
2023-05-31T06:38:26.896Z,12.70
2023-05-31T06:40:54.974Z,12.70
2023-05-31T06:43:21.720Z,12.90
2023-05-31T06:45:57.411Z,13.00
2023-05-31T06:48:44.113Z,13.10
2023-05-31T06:51:40.603Z,13.20
2023-05-31T06:54:29.965Z,13.30
2023-05-31T06:56:58.588Z,13.40
2023-05-31T06:59:25.322Z,13.50
2023-05-31T07:01:53.603Z,13.60
2023-05-31T07:04:20.939Z,13.70
2023-05-31T07:06:48.288Z,13.80
2023-05-31T07:09:15.091Z,13.80
2023-05-31T07:11:53.773Z,13.80
2023-05-31T07:14:22.931Z,14.00
2023-05-31T07:16:49.760Z,14.10
2023-05-31T07:19:46.909Z,14.10
2023-05-31T07:22:16.137Z,14.20
2023-05-31T07:24:43.553Z,14.30
2023-05-31T07:27:11.099Z,14.30
2023-05-31T07:29:38.247Z,14.40
2023-05-31T07:32:05.465Z,14.40
2023-05-31T07:34:32.742Z,14.50
2023-05-31T07:36:59.419Z,14.60
2023-05-31T07:39:26.405Z,14.70
2023-05-31T07:41:53.157Z,14.80
2023-05-31T07:44:20.866Z,14.90
2023-05-31T07:46:47.665Z,15.00
2023-05-31T07:49:14.353Z,15.10
2023-05-31T07:51:41.164Z,15.20
2023-05-31T07:54:07.914Z,15.40
2023-05-31T07:56:34.591Z,15.50
2023-05-31T07:59:01.381Z,15.60
2023-05-31T08:01:28.086Z,15.70
2023-05-31T08:03:56.091Z,15.80
2023-05-31T08:06:23.285Z,15.90
2023-05-31T08:08:50.011Z,16.00
2023-05-31T08:11:16.710Z,16.20
2023-05-31T08:13:43.420Z,16.30
2023-05-31T08:16:10.363Z,16.40
2023-05-31T08:18:37.036Z,16.50
2023-05-31T08:21:04.257Z,16.70
2023-05-31T08:23:31.239Z,16.80
2023-05-31T08:25:57.940Z,17.00
2023-05-31T08:28:24.759Z,17.10
2023-05-31T08:30:51.555Z,17.30
2023-05-31T08:33:18.254Z,17.40
2023-05-31T08:35:44.921Z,17.50
2023-05-31T08:38:11.641Z,17.70
2023-05-31T08:40:39.306Z,17.80
2023-05-31T08:43:21.237Z,17.90
2023-05-31T08:45:50.923Z,18.00
2023-05-31T08:48:38.078Z,18.20
2023-05-31T08:51:07.984Z,18.50
2023-05-31T08:53:35.662Z,18.50
2023-05-31T08:56:04.359Z,18.70
2023-05-31T08:58:31.398Z,18.80
2023-05-31T09:00:59.261Z,19.00
2023-05-31T09:03:27.649Z,19.30
2023-05-31T09:05:56.383Z,19.60
2023-05-31T09:08:23.627Z,19.90
2023-05-31T09:10:51.365Z,20.00
2023-05-31T09:13:18.233Z,20.20
2023-05-31T09:15:46.504Z,20.70
2023-05-31T09:18:19.629Z,20.90
2023-05-31T09:20:51.166Z,21.10
2023-05-31T09:23:19.015Z,21.30
2023-05-31T09:25:53.839Z,21.30
2023-05-31T09:28:22.578Z,21.70
2023-05-31T09:31:04.202Z,21.80
2023-05-31T09:33:43.294Z,22.00
2023-05-31T09:36:12.670Z,22.30
2023-05-31T09:38:39.654Z,22.90
2023-05-31T09:41:20.360Z,23.20
2023-05-31T09:43:48.894Z,23.70
2023-05-31T09:46:20.882Z,23.50
2023-05-31T09:49:02.768Z,23.20
2023-05-31T09:51:30.322Z,23.40
2023-05-31T09:53:57.177Z,23.50
2023-05-31T09:56:26.538Z,23.80
2023-05-31T09:58:56.255Z,24.10
2023-05-31T10:01:23.020Z,24.20
2023-05-31T10:03:53.446Z,23.70
2023-05-31T10:06:20.625Z,24.20
2023-05-31T10:08:47.612Z,24.70
2023-05-31T10:11:27.678Z,25.20
2023-05-31T10:14:00.183Z,25.30
2023-05-31T10:16:28.949Z,25.90
2023-05-31T10:19:03.068Z,25.70
2023-05-31T10:21:30.097Z,25.40
2023-05-31T10:24:14.073Z,25.10
2023-05-31T10:26:55.786Z,24.80
2023-05-31T10:29:29.903Z,24.30
2023-05-31T10:32:02.395Z,24.60
2023-05-31T10:34:32.209Z,25.20
2023-05-31T10:36:58.887Z,25.20
2023-05-31T10:39:33.913Z,25.50
2023-05-31T10:42:45.442Z,25.20
2023-05-31T10:45:14.840Z,25.60
2023-05-31T10:47:56.786Z,25.80
2023-05-31T10:50:23.972Z,25.60
2023-05-31T10:53:09.124Z,25.20
2023-05-31T10:55:43.014Z,24.80
2023-05-31T10:58:27.410Z,25.30
2023-05-31T11:00:56.161Z,25.70
2023-05-31T11:03:27.568Z,25.60
2023-05-31T11:06:01.812Z,25.10
2023-05-31T11:08:29.989Z,24.50
2023-05-31T11:11:45.759Z,24.90
2023-05-31T11:14:26.846Z,25.50
2023-05-31T11:17:04.866Z,25.50
2023-05-31T11:19:34.975Z,25.40
2023-05-31T11:22:13.754Z,25.50
2023-05-31T11:24:52.473Z,25.90
2023-05-31T11:27:24.236Z,25.70
2023-05-31T11:29:54.229Z,25.40
2023-05-31T11:32:22.259Z,25.70
2023-05-31T11:34:57.441Z,26.30
2023-05-31T11:37:24.790Z,26.60
2023-05-31T11:39:54.130Z,26.70
2023-05-31T11:42:21.738Z,26.80
2023-05-31T11:44:50.288Z,26.60
2023-05-31T11:47:33.064Z,25.70
2023-05-31T11:49:59.895Z,25.90
2023-05-31T11:52:26.671Z,26.30
2023-05-31T11:54:55.886Z,26.20
2023-05-31T11:57:23.367Z,25.80
2023-05-31T11:59:50.032Z,26.60
2023-05-31T12:02:18.515Z,26.70
2023-05-31T12:04:45.305Z,26.20
2023-05-31T12:07:21.301Z,26.40
2023-05-31T12:09:48.043Z,26.50
2023-05-31T12:12:15.905Z,26.10
2023-05-31T12:14:53.226Z,26.10
2023-05-31T12:17:20.310Z,26.30
2023-05-31T12:19:49.022Z,25.70
2023-05-31T12:22:15.970Z,25.00
2023-05-31T12:24:52.764Z,24.30
2023-05-31T12:27:29.549Z,23.90
2023-05-31T12:30:05.139Z,24.00
2023-05-31T12:32:31.933Z,24.10
2023-05-31T12:35:11.852Z,24.40
2023-05-31T12:37:40.856Z,24.60
2023-05-31T12:40:16.822Z,25.00
2023-05-31T12:42:43.886Z,25.40
2023-05-31T12:45:11.005Z,25.70
2023-05-31T12:47:38.565Z,25.90
2023-05-31T12:50:07.958Z,26.40
2023-05-31T12:52:36.198Z,26.70
2023-05-31T12:55:03.092Z,27.20
2023-05-31T12:57:29.888Z,27.60
2023-05-31T13:00:06.715Z,27.70
2023-05-31T13:02:33.488Z,27.30
2023-05-31T13:05:00.355Z,27.10
2023-05-31T13:07:26.947Z,27.10
2023-05-31T13:09:54.791Z,27.20
2023-05-31T13:12:22.225Z,27.50
2023-05-31T13:14:49.150Z,27.40
2023-05-31T13:17:18.651Z,26.90
2023-05-31T13:19:53.147Z,26.50
2023-05-31T13:22:28.202Z,26.30
2023-05-31T13:24:54.955Z,27.00
2023-05-31T13:27:21.637Z,27.10
2023-05-31T13:29:48.264Z,27.10
2023-05-31T13:32:14.925Z,26.70
2023-05-31T13:34:41.584Z,26.80
2023-05-31T13:37:08.405Z,26.70
2023-05-31T13:39:35.160Z,27.10
2023-05-31T13:42:02.709Z,27.10
2023-05-31T13:44:29.387Z,26.60
2023-05-31T13:46:56.229Z,26.80
2023-05-31T13:49:22.997Z,26.90
2023-05-31T13:51:49.733Z,27.50
2023-05-31T13:54:17.817Z,27.30
2023-05-31T13:56:44.536Z,26.70
2023-05-31T13:59:11.213Z,27.20
2023-05-31T14:01:38.296Z,27.90
2023-05-31T14:04:05.165Z,27.90
2023-05-31T14:06:32.852Z,28.20
2023-05-31T14:08:59.927Z,28.00
2023-05-31T14:11:28.514Z,27.70
2023-05-31T14:13:55.352Z,27.60
2023-05-31T14:16:23.988Z,27.80
2023-05-31T14:18:52.844Z,27.80
2023-05-31T14:21:20.989Z,28.10
2023-05-31T14:23:47.671Z,28.00
2023-05-31T14:26:14.320Z,28.20
2023-05-31T14:28:41.025Z,28.90
2023-05-31T14:31:07.696Z,28.90
2023-05-31T14:33:34.431Z,29.30
2023-05-31T14:36:01.946Z,30.00
2023-05-31T14:38:29.030Z,29.10
2023-05-31T14:41:00.918Z,29.70
2023-05-31T14:43:27.785Z,29.70
2023-05-31T14:45:54.454Z,29.30
2023-05-31T14:48:21.436Z,29.00
2023-05-31T14:50:48.185Z,28.40
2023-05-31T14:53:15.494Z,28.50
2023-05-31T14:55:42.230Z,28.60
2023-05-31T14:58:08.989Z,29.00
2023-05-31T15:00:36.322Z,28.90
2023-05-31T15:03:03.107Z,29.10
2023-05-31T15:05:29.836Z,28.70
2023-05-31T15:07:56.769Z,28.10
2023-05-31T15:10:27.075Z,28.40
2023-05-31T15:12:54.189Z,28.40
2023-05-31T15:15:21.124Z,28.30
2023-05-31T15:17:48.287Z,28.10
2023-05-31T15:20:15.083Z,28.70
2023-05-31T15:22:41.842Z,29.10
2023-05-31T15:25:08.922Z,28.90
2023-05-31T15:27:35.597Z,28.90
2023-05-31T15:30:02.346Z,28.90
2023-05-31T15:32:29.085Z,28.90
2023-05-31T15:34:55.742Z,28.90
2023-05-31T15:37:22.676Z,28.50
2023-05-31T15:39:49.380Z,28.80
2023-05-31T15:42:16.027Z,29.30
2023-05-31T15:44:42.729Z,29.40
2023-05-31T15:47:09.610Z,29.10
2023-05-31T15:49:39.103Z,28.50
2023-05-31T15:52:06.238Z,28.20
2023-05-31T15:54:33.140Z,28.10
2023-05-31T15:56:59.814Z,28.50
2023-05-31T15:59:26.747Z,28.80
2023-05-31T16:01:54.501Z,28.70
2023-05-31T16:04:21.370Z,28.50
2023-05-31T16:06:48.016Z,28.10
2023-05-31T16:09:14.690Z,28.40
2023-05-31T16:11:41.519Z,28.20
2023-05-31T16:14:08.215Z,28.60
2023-05-31T16:16:37.836Z,28.20
2023-05-31T16:19:05.364Z,28.70
2023-05-31T16:21:33.098Z,29.00
2023-05-31T16:24:00.229Z,28.10
2023-05-31T16:26:27.694Z,28.50
2023-05-31T16:28:54.459Z,28.70
2023-05-31T16:31:22.118Z,28.90
2023-05-31T16:33:49.701Z,28.80
2023-05-31T16:36:16.447Z,28.40
2023-05-31T16:38:43.310Z,28.40
2023-05-31T16:41:10.064Z,28.80
2023-05-31T16:43:37.026Z,28.80
2023-05-31T16:46:03.935Z,29.20
2023-05-31T16:48:31.605Z,29.00
2023-05-31T16:50:58.378Z,28.80
2023-05-31T16:53:25.233Z,28.60
2023-05-31T16:55:54.185Z,28.90
2023-05-31T16:58:21.001Z,28.50
2023-05-31T17:00:47.733Z,28.20
2023-05-31T17:03:14.639Z,28.00
2023-05-31T17:05:42.849Z,27.70
2023-05-31T17:08:11.126Z,28.20
2023-05-31T17:10:38.034Z,28.30
2023-05-31T17:13:07.256Z,28.40
2023-05-31T17:15:34.965Z,28.40
2023-05-31T17:18:01.765Z,28.60
2023-05-31T17:20:28.461Z,28.90
2023-05-31T17:22:55.242Z,29.30
2023-05-31T17:25:22.033Z,28.70
2023-05-31T17:27:50.151Z,29.00
2023-05-31T17:30:16.945Z,28.90
2023-05-31T17:32:43.713Z,29.00
2023-05-31T17:35:10.547Z,28.80
2023-05-31T17:37:37.296Z,28.70
2023-05-31T17:40:04.279Z,29.10
2023-05-31T17:42:30.954Z,29.40
2023-05-31T17:44:57.697Z,29.30
2023-05-31T17:47:24.404Z,29.00
2023-05-31T17:49:51.173Z,28.70
2023-05-31T17:52:17.829Z,28.70
2023-05-31T17:54:44.493Z,28.40
2023-05-31T17:57:11.388Z,27.80
2023-05-31T17:59:38.056Z,27.40
2023-05-31T18:02:04.974Z,27.00
2023-05-31T18:04:31.801Z,27.20
2023-05-31T18:07:00.037Z,27.50
2023-05-31T18:09:28.112Z,27.20
2023-05-31T18:11:54.815Z,27.40
2023-05-31T18:14:21.494Z,27.00
2023-05-31T18:16:50.785Z,27.00
2023-05-31T18:19:17.507Z,27.00
2023-05-31T18:21:45.338Z,26.20
2023-05-31T18:24:13.437Z,26.00
2023-05-31T18:26:43.725Z,25.60
2023-05-31T18:29:10.763Z,25.20
2023-05-31T18:31:38.572Z,24.50
2023-05-31T18:34:05.295Z,23.90
2023-05-31T18:36:32.030Z,23.50
2023-05-31T18:38:59.455Z,23.20
2023-05-31T18:41:27.626Z,22.90
2023-05-31T18:43:54.326Z,22.70
2023-05-31T18:46:21.050Z,22.40
2023-05-31T18:48:47.800Z,22.00
2023-05-31T18:51:14.406Z,21.40
2023-05-31T18:53:41.016Z,21.10
2023-05-31T18:56:07.659Z,20.80
2023-05-31T18:58:34.372Z,20.40
2023-05-31T19:01:01.285Z,20.10
2023-05-31T19:03:28.281Z,19.80
2023-05-31T19:05:55.027Z,19.60
2023-05-31T19:08:22.064Z,19.40
2023-05-31T19:10:48.771Z,19.10
2023-05-31T19:13:15.675Z,18.90
2023-05-31T19:15:43.288Z,18.60
2023-05-31T19:18:17.636Z,18.30
2023-05-31T19:20:48.985Z,18.20
2023-05-31T19:23:19.324Z,18.00
2023-05-31T19:25:46.567Z,17.80
2023-05-31T19:28:13.287Z,17.60
2023-05-31T19:30:41.560Z,17.40
2023-05-31T19:33:08.330Z,17.30
2023-05-31T19:35:35.038Z,17.10
2023-05-31T19:38:01.714Z,17.00
2023-05-31T19:40:28.393Z,16.90
2023-05-31T19:42:57.151Z,16.80
2023-05-31T19:45:23.939Z,16.70
2023-05-31T19:47:51.502Z,16.60
2023-05-31T19:50:18.429Z,16.50
2023-05-31T19:52:46.909Z,16.40
2023-05-31T19:55:13.685Z,16.20
2023-05-31T19:57:40.540Z,16.10
2023-05-31T20:00:08.922Z,16.00
2023-05-31T20:02:36.885Z,15.90
2023-05-31T20:05:03.640Z,15.90
2023-05-31T20:07:30.444Z,15.80
2023-05-31T20:09:57.106Z,15.70
2023-05-31T20:12:23.845Z,15.60
2023-05-31T20:14:50.727Z,15.50
2023-05-31T20:17:17.399Z,15.40
2023-05-31T20:19:44.185Z,15.20
2023-05-31T20:22:11.043Z,15.10
2023-05-31T20:24:37.848Z,15.00
2023-05-31T20:27:04.708Z,14.90
2023-05-31T20:29:31.820Z,14.80
2023-05-31T20:31:59.065Z,14.70
2023-05-31T20:34:25.848Z,14.50
2023-05-31T20:36:52.705Z,14.40
2023-05-31T20:39:19.359Z,14.30
2023-05-31T20:41:46.096Z,14.30
2023-05-31T20:44:13.735Z,14.30
2023-05-31T20:46:40.697Z,14.20
2023-05-31T20:49:07.618Z,14.10
2023-05-31T20:51:35.569Z,14.00
2023-05-31T20:54:02.422Z,13.90
2023-05-31T20:56:29.903Z,13.90
2023-05-31T20:58:56.975Z,13.90
2023-05-31T21:01:23.797Z,13.60
2023-05-31T21:03:51.981Z,13.50
2023-05-31T21:06:18.923Z,13.50
2023-05-31T21:08:45.765Z,13.40
2023-05-31T21:11:12.490Z,13.50
2023-05-31T21:13:39.186Z,13.50
2023-05-31T21:16:06.240Z,13.50
2023-05-31T21:18:33.304Z,13.40
2023-05-31T21:21:00.995Z,13.30
2023-05-31T21:23:27.859Z,13.30
2023-05-31T21:25:54.609Z,13.20
2023-05-31T21:28:21.905Z,13.10
2023-05-31T21:30:48.676Z,13.10
2023-05-31T21:33:15.427Z,12.90
2023-05-31T21:35:42.203Z,12.90
2023-05-31T21:38:09.012Z,12.80
2023-05-31T21:40:35.847Z,12.70
2023-05-31T21:43:02.613Z,12.60
2023-05-31T21:45:29.283Z,12.40
2023-05-31T21:47:56.028Z,12.40
2023-05-31T21:50:22.997Z,12.30
2023-05-31T21:52:49.831Z,12.20
2023-05-31T21:55:16.499Z,12.20
2023-05-31T21:57:43.161Z,12.10
2023-05-31T22:00:11.993Z,11.90
2023-05-31T22:02:39.668Z,11.80
2023-05-31T22:05:07.214Z,11.70
2023-05-31T22:07:37.665Z,11.70
2023-05-31T22:10:06.309Z,11.60
2023-05-31T22:12:35.358Z,11.60
2023-05-31T22:15:03.304Z,11.50
2023-05-31T22:17:30.984Z,11.40
2023-05-31T22:20:01.510Z,11.30
2023-05-31T22:22:29.481Z,11.30
2023-05-31T22:25:09.515Z,11.40
2023-05-31T22:27:40.022Z,11.30
2023-05-31T22:30:07.488Z,11.10
2023-05-31T22:32:34.305Z,11.10
2023-05-31T22:35:01.081Z,11.00
2023-05-31T22:37:27.826Z,10.80
2023-05-31T22:39:54.564Z,10.80
2023-05-31T22:42:21.345Z,10.70
2023-05-31T22:44:48.056Z,10.70
2023-05-31T22:47:14.747Z,10.60
2023-05-31T22:49:41.386Z,10.60
2023-05-31T22:52:12.181Z,10.50
2023-05-31T22:54:38.923Z,10.40
2023-05-31T22:57:06.863Z,10.30
2023-05-31T22:59:33.515Z,10.20
2023-05-31T23:02:00.288Z,10.20
2023-05-31T23:04:27.362Z,10.20
2023-05-31T23:06:54.754Z,10.30
2023-05-31T23:09:21.722Z,10.40
2023-05-31T23:11:50.254Z,10.40
2023-05-31T23:14:18.391Z,10.30
2023-05-31T23:16:46.376Z,10.30
2023-05-31T23:19:14.253Z,10.50
2023-05-31T23:21:46.087Z,10.40
2023-05-31T23:24:13.143Z,10.50
2023-05-31T23:26:39.905Z,10.40
2023-05-31T23:29:06.574Z,10.40
2023-05-31T23:31:33.345Z,10.40
2023-05-31T23:34:00.142Z,10.40
2023-05-31T23:36:26.967Z,10.30
2023-05-31T23:38:53.740Z,10.40
2023-05-31T23:41:20.631Z,10.20
2023-05-31T23:43:48.108Z,10.10
2023-05-31T23:46:14.883Z,10.20
2023-05-31T23:48:41.627Z,10.10
2023-05-31T23:51:08.371Z,10.10
2023-05-31T23:53:36.443Z,10.10
2023-05-31T23:56:03.297Z,10.10
2023-05-31T23:58:31.023Z,10.10
